sensor_id;sensor_type;location;lat;lon;timestamp;temperature;humidity
45735;DHT22;31446;49.632;8.328;2023-02-03T00:11:33;7.60;99.90
45735;DHT22;31446;49.632;8.328;2023-02-03T00:26:42;7.60;99.90
45735;DHT22;31446;49.632;8.328;2023-02-03T00:41:48;7.70;99.90
45735;DHT22;31446;49.632;8.328;2023-02-03T00:56:55;7.70;99.90
45735;DHT22;31446;49.632;8.328;2023-02-03T01:12:01;7.90;99.90
45735;DHT22;31446;49.632;8.328;2023-02-03T01:27:07;8.00;99.90
45735;DHT22;31446;49.632;8.328;2023-02-03T01:42:14;8.00;99.90
45735;DHT22;31446;49.632;8.328;2023-02-03T01:57:23;7.90;99.90
45735;DHT22;31446;49.632;8.328;2023-02-03T02:12:31;8.00;99.90
45735;DHT22;31446;49.632;8.328;2023-02-03T02:27:54;8.00;99.90
45735;DHT22;31446;49.632;8.328;2023-02-03T02:43:09;8.00;99.90
45735;DHT22;31446;49.632;8.328;2023-02-03T02:58:17;8.10;99.90
45735;DHT22;31446;49.632;8.328;2023-02-03T03:13:28;8.10;99.90
45735;DHT22;31446;49.632;8.328;2023-02-03T03:28:40;8.10;99.90
45735;DHT22;31446;49.632;8.328;2023-02-03T03:43:47;8.00;99.90
45735;DHT22;31446;49.632;8.328;2023-02-03T03:58:55;8.00;99.90
45735;DHT22;31446;49.632;8.328;2023-02-03T04:14:02;8.10;99.90
45735;DHT22;31446;49.632;8.328;2023-02-03T04:29:09;8.20;99.90
45735;DHT22;31446;49.632;8.328;2023-02-03T04:44:15;8.20;99.90
45735;DHT22;31446;49.632;8.328;2023-02-03T04:59:21;8.20;99.90
45735;DHT22;31446;49.632;8.328;2023-02-03T05:14:27;8.20;99.90
45735;DHT22;31446;49.632;8.328;2023-02-03T05:29:33;8.10;99.90
45735;DHT22;31446;49.632;8.328;2023-02-03T05:44:39;8.00;99.90
45735;DHT22;31446;49.632;8.328;2023-02-03T05:59:46;7.90;99.90
45735;DHT22;31446;49.632;8.328;2023-02-03T06:14:52;7.80;99.90
45735;DHT22;31446;49.632;8.328;2023-02-03T06:29:58;7.90;99.90
45735;DHT22;31446;49.632;8.328;2023-02-03T06:45:06;7.90;99.90
45735;DHT22;31446;49.632;8.328;2023-02-03T07:00:14;8.30;99.90
45735;DHT22;31446;49.632;8.328;2023-02-03T07:15:21;8.20;99.90
45735;DHT22;31446;49.632;8.328;2023-02-03T07:30:27;8.20;99.90
45735;DHT22;31446;49.632;8.328;2023-02-03T07:45:33;8.20;99.90
45735;DHT22;31446;49.632;8.328;2023-02-03T08:00:39;8.40;99.90
45735;DHT22;31446;49.632;8.328;2023-02-03T08:15:46;8.40;99.90
45735;DHT22;31446;49.632;8.328;2023-02-03T08:30:52;8.40;99.90
45735;DHT22;31446;49.632;8.328;2023-02-03T08:46:01;8.40;99.90
45735;DHT22;31446;49.632;8.328;2023-02-03T09:01:08;8.60;99.90
45735;DHT22;31446;49.632;8.328;2023-02-03T09:16:16;8.70;99.90
45735;DHT22;31446;49.632;8.328;2023-02-03T09:31:23;8.70;99.90
45735;DHT22;31446;49.632;8.328;2023-02-03T09:46:38;8.80;99.90
45735;DHT22;31446;49.632;8.328;2023-02-03T10:01:52;9.00;99.90
45735;DHT22;31446;49.632;8.328;2023-02-03T10:17:10;9.30;99.90
45735;DHT22;31446;49.632;8.328;2023-02-03T10:32:18;9.30;99.90
45735;DHT22;31446;49.632;8.328;2023-02-03T10:47:28;9.30;99.90
45735;DHT22;31446;49.632;8.328;2023-02-03T11:02:37;9.30;99.90
45735;DHT22;31446;49.632;8.328;2023-02-03T11:17:44;9.40;99.90
45735;DHT22;31446;49.632;8.328;2023-02-03T11:32:50;9.40;99.90
45735;DHT22;31446;49.632;8.328;2023-02-03T11:48:12;9.20;99.90
45735;DHT22;31446;49.632;8.328;2023-02-03T12:03:43;9.30;99.90
45735;DHT22;31446;49.632;8.328;2023-02-03T12:19:00;9.40;99.90
45735;DHT22;31446;49.632;8.328;2023-02-03T12:34:17;9.40;99.90
45735;DHT22;31446;49.632;8.328;2023-02-03T12:49:33;9.60;99.90
45735;DHT22;31446;49.632;8.328;2023-02-03T13:04:46;9.40;99.90
45735;DHT22;31446;49.632;8.328;2023-02-03T13:19:58;9.60;99.90
45735;DHT22;31446;49.632;8.328;2023-02-03T13:35:25;9.60;99.90
45735;DHT22;31446;49.632;8.328;2023-02-03T13:50:35;9.40;99.90
45735;DHT22;31446;49.632;8.328;2023-02-03T14:05:46;9.20;99.90
45735;DHT22;31446;49.632;8.328;2023-02-03T14:21:08;9.20;99.90
45735;DHT22;31446;49.632;8.328;2023-02-03T14:36:36;9.20;99.90
45735;DHT22;31446;49.632;8.328;2023-02-03T14:51:54;9.40;99.90
45735;DHT22;31446;49.632;8.328;2023-02-03T15:07:03;9.60;99.90
45735;DHT22;31446;49.632;8.328;2023-02-03T15:22:20;9.30;99.90
45735;DHT22;31446;49.632;8.328;2023-02-03T15:37:33;9.20;99.90
45735;DHT22;31446;49.632;8.328;2023-02-03T15:52:42;9.30;99.90
45735;DHT22;31446;49.632;8.328;2023-02-03T16:07:49;9.10;99.90
45735;DHT22;31446;49.632;8.328;2023-02-03T16:23:17;9.00;99.90
45735;DHT22;31446;49.632;8.328;2023-02-03T16:38:24;9.00;99.90
45735;DHT22;31446;49.632;8.328;2023-02-03T16:53:44;9.00;99.90
45735;DHT22;31446;49.632;8.328;2023-02-03T17:08:50;9.10;99.90
45735;DHT22;31446;49.632;8.328;2023-02-03T17:23:57;8.90;99.90
45735;DHT22;31446;49.632;8.328;2023-02-03T17:39:03;8.70;99.90
45735;DHT22;31446;49.632;8.328;2023-02-03T17:54:10;8.60;99.90
45735;DHT22;31446;49.632;8.328;2023-02-03T18:09:16;8.70;99.90
45735;DHT22;31446;49.632;8.328;2023-02-03T18:24:22;8.80;99.90
45735;DHT22;31446;49.632;8.328;2023-02-03T18:39:31;8.80;99.90
45735;DHT22;31446;49.632;8.328;2023-02-03T18:54:37;9.00;99.90
45735;DHT22;31446;49.632;8.328;2023-02-03T19:09:43;9.10;99.90
45735;DHT22;31446;49.632;8.328;2023-02-03T19:24:51;9.00;99.90
45735;DHT22;31446;49.632;8.328;2023-02-03T19:39:57;9.00;99.90
45735;DHT22;31446;49.632;8.328;2023-02-03T19:55:04;9.10;99.90
45735;DHT22;31446;49.632;8.328;2023-02-03T20:10:12;9.10;99.90
45735;DHT22;31446;49.632;8.328;2023-02-03T20:25:18;9.10;99.90
45735;DHT22;31446;49.632;8.328;2023-02-03T20:40:25;9.60;99.90
45735;DHT22;31446;49.632;8.328;2023-02-03T20:55:31;9.80;99.90
45735;DHT22;31446;49.632;8.328;2023-02-03T21:10:38;9.60;99.90
45735;DHT22;31446;49.632;8.328;2023-02-03T21:25:44;9.70;99.90
45735;DHT22;31446;49.632;8.328;2023-02-03T21:40:52;9.50;99.90
45735;DHT22;31446;49.632;8.328;2023-02-03T21:55:59;9.50;99.90
45735;DHT22;31446;49.632;8.328;2023-02-03T22:11:18;9.70;99.90
45735;DHT22;31446;49.632;8.328;2023-02-03T22:26:24;9.70;99.90
45735;DHT22;31446;49.632;8.328;2023-02-03T22:41:30;9.60;99.90
45735;DHT22;31446;49.632;8.328;2023-02-03T22:56:36;9.60;99.90
45735;DHT22;31446;49.632;8.328;2023-02-03T23:11:42;9.50;99.90
45735;DHT22;31446;49.632;8.328;2023-02-03T23:26:48;9.40;99.90
45735;DHT22;31446;49.632;8.328;2023-02-03T23:41:54;9.50;99.90
45735;DHT22;31446;49.632;8.328;2023-02-03T23:57:03;9.40;99.90
